sensor_id;sensor_type;location;lat;lon;timestamp;pressure;altitude;pressure_sealevel;temperature;humidity
12913;BME280;6524;51.368;11.984;2022-10-14T04:01:17;100297.44;;;14.20;93.14
12913;BME280;6524;51.368;11.984;2022-10-14T04:06:17;100295.84;;;14.16;93.69
12913;BME280;6524;51.368;11.984;2022-10-14T04:11:17;100288.78;;;14.18;93.63
12913;BME280;6524;51.368;11.984;2022-10-14T04:16:18;100289.63;;;14.18;93.49
12913;BME280;6524;51.368;11.984;2022-10-14T04:21:19;100276.84;;;14.29;93.44
12913;BME280;6524;51.368;11.984;2022-10-14T04:26:19;100276.75;;;14.31;93.41
12913;BME280;6524;51.368;11.984;2022-10-14T04:31:20;100273.69;;;14.23;93.82
12913;BME280;6524;51.368;11.984;2022-10-14T04:36:21;100270.03;;;14.25;93.80
12913;BME280;6524;51.368;11.984;2022-10-14T04:41:21;100272.59;;;14.27;93.27
12913;BME280;6524;51.368;11.984;2022-10-14T04:46:22;100265.09;;;14.19;93.57
12913;BME280;6524;51.368;11.984;2022-10-14T04:51:22;100268.03;;;14.30;93.36
12913;BME280;6524;51.368;11.984;2022-10-14T04:56:23;100260.88;;;14.17;93.73
12913;BME280;6524;51.368;11.984;2022-10-14T05:01:23;100261.78;;;14.33;93.15
12913;BME280;6524;51.368;11.984;2022-10-14T05:06:23;100255.63;;;14.17;93.03
12913;BME280;6524;51.368;11.984;2022-10-14T05:11:24;100248.06;;;14.10;93.59
12913;BME280;6524;51.368;11.984;2022-10-14T05:16:24;100244.16;;;14.00;94.44
12913;BME280;6524;51.368;11.984;2022-10-14T05:21:24;100243.13;;;14.04;94.22
12913;BME280;6524;51.368;11.984;2022-10-14T05:26:25;100248.16;;;13.90;94.81
12913;BME280;6524;51.368;11.984;2022-10-14T05:31:25;100246.63;;;13.86;95.05
12913;BME280;6524;51.368;11.984;2022-10-14T05:36:25;100241.25;;;13.89;94.98
12913;BME280;6524;51.368;11.984;2022-10-14T05:41:26;100245.78;;;13.85;95.24
12913;BME280;6524;51.368;11.984;2022-10-14T05:46:26;100245.69;;;13.87;96.44
12913;BME280;6524;51.368;11.984;2022-10-14T05:51:26;100254.50;;;14.03;95.07
12913;BME280;6524;51.368;11.984;2022-10-14T05:56:27;100256.81;;;14.09;94.53
12913;BME280;6524;51.368;11.984;2022-10-14T06:01:27;100261.00;;;14.31;93.65
12913;BME280;6524;51.368;11.984;2022-10-14T06:06:27;100257.63;;;14.46;92.99
12913;BME280;6524;51.368;11.984;2022-10-14T06:11:27;100255.50;;;14.54;92.13
12913;BME280;6524;51.368;11.984;2022-10-14T06:16:28;100272.47;;;14.65;92.13
12913;BME280;6524;51.368;11.984;2022-10-14T06:21:28;100277.25;;;14.74;91.63
12913;BME280;6524;51.368;11.984;2022-10-14T06:26:28;100274.84;;;14.69;91.42
12913;BME280;6524;51.368;11.984;2022-10-14T06:31:29;100267.38;;;14.62;92.06
12913;BME280;6524;51.368;11.984;2022-10-14T06:36:29;100273.47;;;14.62;91.93
12913;BME280;6524;51.368;11.984;2022-10-14T06:41:29;100272.16;;;14.71;91.29
12913;BME280;6524;51.368;11.984;2022-10-14T06:46:31;100279.72;;;14.77;91.41
12913;BME280;6524;51.368;11.984;2022-10-14T06:51:31;100285.88;;;14.76;90.93
12913;BME280;6524;51.368;11.984;2022-10-14T06:56:31;100290.06;;;14.80;91.26
12913;BME280;6524;51.368;11.984;2022-10-14T07:01:33;100285.41;;;14.85;90.93
12913;BME280;6524;51.368;11.984;2022-10-14T07:06:35;100279.13;;;14.88;91.22
12913;BME280;6524;51.368;11.984;2022-10-14T07:11:36;100280.75;;;15.08;90.35
12913;BME280;6524;51.368;11.984;2022-10-14T07:16:36;100286.00;;;15.08;89.98
12913;BME280;6524;51.368;11.984;2022-10-14T07:21:36;100285.44;;;15.34;89.01
12913;BME280;6524;51.368;11.984;2022-10-14T07:26:39;100285.22;;;15.55;87.92
12913;BME280;6524;51.368;11.984;2022-10-14T07:31:40;100290.47;;;15.55;88.01
12913;BME280;6524;51.368;11.984;2022-10-14T07:36:41;100287.94;;;15.69;87.07
12913;BME280;6524;51.368;11.984;2022-10-14T07:41:41;100275.25;;;15.77;86.84
12913;BME280;6524;51.368;11.984;2022-10-14T07:46:43;100275.91;;;15.81;86.84
12913;BME280;6524;51.368;11.984;2022-10-14T07:51:45;100280.72;;;15.88;86.95
12913;BME280;6524;51.368;11.984;2022-10-14T07:56:46;100279.94;;;16.18;86.05
12913;BME280;6524;51.368;11.984;2022-10-14T08:01:49;100284.16;;;16.51;83.72
12913;BME280;6524;51.368;11.984;2022-10-14T08:06:51;100275.34;;;17.10;80.78
12913;BME280;6524;51.368;11.984;2022-10-14T08:11:51;100277.31;;;17.21;80.12
12913;BME280;6524;51.368;11.984;2022-10-14T08:16:51;100280.16;;;17.88;78.50
12913;BME280;6524;51.368;11.984;2022-10-14T08:21:52;100290.78;;;18.41;74.81
12913;BME280;6524;51.368;11.984;2022-10-14T08:26:54;100273.69;;;19.36;70.23
12913;BME280;6524;51.368;11.984;2022-10-14T08:31:55;100276.59;;;19.07;71.49
12913;BME280;6524;51.368;11.984;2022-10-14T08:36:55;100268.69;;;18.82;73.00
12913;BME280;6524;51.368;11.984;2022-10-14T08:42:09;100267.38;;;19.99;67.77
12913;BME280;6524;51.368;11.984;2022-10-14T08:47:20;100270.88;;;19.76;69.16
12913;BME280;6524;51.368;11.984;2022-10-14T08:52:26;100269.59;;;19.81;68.55
12913;BME280;6524;51.368;11.984;2022-10-14T08:57:42;100280.22;;;19.69;68.54
12913;BME280;6524;51.368;11.984;2022-10-14T09:02:49;100274.94;;;19.69;68.79
12913;BME280;6524;51.368;11.984;2022-10-14T09:07:53;100278.28;;;20.89;64.69
12913;BME280;6524;51.368;11.984;2022-10-14T09:12:55;100279.00;;;24.57;52.01
12913;BME280;6524;51.368;11.984;2022-10-14T09:18:05;100280.94;;;28.36;42.11
12913;BME280;6524;51.368;11.984;2022-10-14T09:23:18;100287.03;;;26.50;46.44
12913;BME280;6524;51.368;11.984;2022-10-14T09:28:19;100270.44;;;24.24;51.57
12913;BME280;6524;51.368;11.984;2022-10-14T09:33:26;100259.66;;;24.16;52.06
12913;BME280;6524;51.368;11.984;2022-10-14T09:38:27;100265.34;;;25.54;48.05
12913;BME280;6524;51.368;11.984;2022-10-14T09:43:28;100261.31;;;23.28;53.28
12913;BME280;6524;51.368;11.984;2022-10-14T09:48:55;100255.47;;;21.65;58.45
12913;BME280;6524;51.368;11.984;2022-10-14T09:53:58;100250.22;;;20.98;61.96
12913;BME280;6524;51.368;11.984;2022-10-14T09:58:58;100243.28;;;21.74;60.08
12913;BME280;6524;51.368;11.984;2022-10-14T10:04:24;100245.53;;;23.56;53.73
12913;BME280;6524;51.368;11.984;2022-10-14T10:09:26;100241.69;;;23.70;52.52
12913;BME280;6524;51.368;11.984;2022-10-14T10:14:30;100244.88;;;22.41;56.11
12913;BME280;6524;51.368;11.984;2022-10-14T10:19:48;100248.41;;;21.10;60.05
12913;BME280;6524;51.368;11.984;2022-10-14T10:51:48;100205.25;;;21.41;58.43
12913;BME280;6524;51.368;11.984;2022-10-14T10:56:55;100197.50;;;21.49;57.60
12913;BME280;6524;51.368;11.984;2022-10-14T11:18:26;100187.13;;;20.34;62.06
12913;BME280;6524;51.368;11.984;2022-10-14T11:28:45;100172.78;;;20.25;62.03
12913;BME280;6524;51.368;11.984;2022-10-14T11:34:01;100151.31;;;20.97;60.22
12913;BME280;6524;51.368;11.984;2022-10-14T11:39:17;100159.03;;;21.87;57.57
12913;BME280;6524;51.368;11.984;2022-10-14T11:44:36;100149.13;;;23.33;53.54
12913;BME280;6524;51.368;11.984;2022-10-14T11:50:04;100147.56;;;23.11;53.28
12913;BME280;6524;51.368;11.984;2022-10-14T11:55:15;100144.81;;;22.92;53.62
12913;BME280;6524;51.368;11.984;2022-10-14T12:05:54;100123.81;;;21.85;56.85
12913;BME280;6524;51.368;11.984;2022-10-14T12:11:04;100115.75;;;21.55;57.46
12913;BME280;6524;51.368;11.984;2022-10-14T12:16:09;100100.84;;;21.31;57.79
12913;BME280;6524;51.368;11.984;2022-10-14T12:21:20;100099.91;;;22.06;56.31
12913;BME280;6524;51.368;11.984;2022-10-14T12:36:30;100080.00;;;22.43;54.41
12913;BME280;6524;51.368;11.984;2022-10-14T12:46:41;100078.13;;;22.12;55.86
12913;BME280;6524;51.368;11.984;2022-10-14T12:51:56;100070.69;;;23.08;53.17
12913;BME280;6524;51.368;11.984;2022-10-14T12:57:14;100068.47;;;23.52;52.22
12913;BME280;6524;51.368;11.984;2022-10-14T13:02:31;100066.94;;;23.78;51.74
12913;BME280;6524;51.368;11.984;2022-10-14T13:07:45;100061.16;;;22.96;53.05
12913;BME280;6524;51.368;11.984;2022-10-14T13:12:47;100070.88;;;22.66;54.72
12913;BME280;6524;51.368;11.984;2022-10-14T13:17:47;100063.25;;;23.02;53.65
12913;BME280;6524;51.368;11.984;2022-10-14T13:22:48;100051.25;;;23.75;51.65
12913;BME280;6524;51.368;11.984;2022-10-14T13:28:02;100049.13;;;23.11;53.63
12913;BME280;6524;51.368;11.984;2022-10-14T13:33:13;100047.63;;;22.28;55.45
12913;BME280;6524;51.368;11.984;2022-10-14T13:38:17;100039.59;;;21.66;56.99
12913;BME280;6524;51.368;11.984;2022-10-14T13:43:39;100041.53;;;21.32;58.77
12913;BME280;6524;51.368;11.984;2022-10-14T13:48:48;100037.25;;;21.20;59.82
12913;BME280;6524;51.368;11.984;2022-10-14T13:53:58;100037.91;;;21.01;60.51
12913;BME280;6524;51.368;11.984;2022-10-14T13:58:59;100032.78;;;20.88;60.93
12913;BME280;6524;51.368;11.984;2022-10-14T14:03:59;100023.97;;;21.20;60.45
12913;BME280;6524;51.368;11.984;2022-10-14T14:09:02;100020.34;;;21.74;58.73
12913;BME280;6524;51.368;11.984;2022-10-14T14:14:24;100012.94;;;21.47;59.01
12913;BME280;6524;51.368;11.984;2022-10-14T14:19:28;100026.47;;;21.33;59.86
12913;BME280;6524;51.368;11.984;2022-10-14T14:24:28;100012.66;;;20.86;61.68
12913;BME280;6524;51.368;11.984;2022-10-14T14:29:31;100018.59;;;20.67;61.44
12913;BME280;6524;51.368;11.984;2022-10-14T14:34:35;100008.25;;;20.52;61.59
12913;BME280;6524;51.368;11.984;2022-10-14T14:39:36;99998.41;;;20.32;61.87
12913;BME280;6524;51.368;11.984;2022-10-14T14:44:38;99990.69;;;20.40;62.15
12913;BME280;6524;51.368;11.984;2022-10-14T14:49:39;99989.38;;;20.23;62.43
12913;BME280;6524;51.368;11.984;2022-10-14T14:54:44;99983.69;;;20.39;62.13
12913;BME280;6524;51.368;11.984;2022-10-14T15:00:00;99974.44;;;20.56;61.83
12913;BME280;6524;51.368;11.984;2022-10-14T15:05:06;99979.63;;;20.24;62.92
12913;BME280;6524;51.368;11.984;2022-10-14T15:10:07;99976.97;;;20.24;63.14
12913;BME280;6524;51.368;11.984;2022-10-14T15:15:30;99988.53;;;20.00;63.16
12913;BME280;6524;51.368;11.984;2022-10-14T15:20:35;99986.97;;;19.75;64.60
12913;BME280;6524;51.368;11.984;2022-10-14T15:25:36;99974.75;;;19.61;64.96
12913;BME280;6524;51.368;11.984;2022-10-14T15:35:40;99939.16;;;19.54;65.54
12913;BME280;6524;51.368;11.984;2022-10-14T15:40:41;99941.06;;;19.52;66.16
12913;BME280;6524;51.368;11.984;2022-10-14T15:45:42;99936.75;;;19.40;66.72
12913;BME280;6524;51.368;11.984;2022-10-14T15:50:44;99929.53;;;19.31;67.09
12913;BME280;6524;51.368;11.984;2022-10-14T15:55:46;99921.91;;;19.15;67.93
12913;BME280;6524;51.368;11.984;2022-10-14T16:00:46;99918.63;;;19.11;67.97
12913;BME280;6524;51.368;11.984;2022-10-14T16:05:46;99911.56;;;19.12;68.08
12913;BME280;6524;51.368;11.984;2022-10-14T16:10:47;99912.44;;;18.88;69.49
12913;BME280;6524;51.368;11.984;2022-10-14T16:15:56;99908.63;;;18.68;69.99
12913;BME280;6524;51.368;11.984;2022-10-14T16:20:58;99909.47;;;18.69;70.19
12913;BME280;6524;51.368;11.984;2022-10-14T16:25:58;99888.84;;;18.50;70.54
12913;BME280;6524;51.368;11.984;2022-10-14T16:30:59;99898.63;;;18.37;70.46
12913;BME280;6524;51.368;11.984;2022-10-14T16:35:59;99903.94;;;18.48;70.06
12913;BME280;6524;51.368;11.984;2022-10-14T16:41:01;99912.09;;;18.45;70.34
12913;BME280;6524;51.368;11.984;2022-10-14T16:46:02;99921.41;;;18.38;69.97
12913;BME280;6524;51.368;11.984;2022-10-14T16:51:03;99917.81;;;18.39;70.02
12913;BME280;6524;51.368;11.984;2022-10-14T16:56:04;99918.47;;;18.30;70.08
12913;BME280;6524;51.368;11.984;2022-10-14T17:01:28;99920.63;;;18.24;70.16
12913;BME280;6524;51.368;11.984;2022-10-14T17:06:29;99913.38;;;18.15;70.32
12913;BME280;6524;51.368;11.984;2022-10-14T17:11:29;99905.84;;;18.22;70.14
12913;BME280;6524;51.368;11.984;2022-10-14T17:16:30;99913.41;;;18.26;70.01
12913;BME280;6524;51.368;11.984;2022-10-14T17:21:30;99913.41;;;18.26;70.11
12913;BME280;6524;51.368;11.984;2022-10-14T17:26:31;99909.09;;;18.25;70.30
12913;BME280;6524;51.368;11.984;2022-10-14T17:31:32;99908.38;;;18.23;71.00
12913;BME280;6524;51.368;11.984;2022-10-14T17:36:33;99898.69;;;18.11;71.43
12913;BME280;6524;51.368;11.984;2022-10-14T17:41:33;99885.44;;;18.00;71.76
12913;BME280;6524;51.368;11.984;2022-10-14T17:46:34;99880.59;;;17.94;72.56
12913;BME280;6524;51.368;11.984;2022-10-14T17:51:35;99875.97;;;17.72;73.65
12913;BME280;6524;51.368;11.984;2022-10-14T17:56:37;99878.91;;;17.67;73.93
12913;BME280;6524;51.368;11.984;2022-10-14T18:01:38;99877.03;;;17.69;74.27
12913;BME280;6524;51.368;11.984;2022-10-14T18:06:42;99865.41;;;17.72;74.08
12913;BME280;6524;51.368;11.984;2022-10-14T18:11:43;99861.19;;;17.69;74.34
12913;BME280;6524;51.368;11.984;2022-10-14T18:16:44;99874.38;;;17.69;74.43
12913;BME280;6524;51.368;11.984;2022-10-14T18:21:44;99852.13;;;17.73;74.42
12913;BME280;6524;51.368;11.984;2022-10-14T18:26:48;99850.88;;;17.66;74.93
12913;BME280;6524;51.368;11.984;2022-10-14T18:31:49;99853.06;;;17.72;74.98
12913;BME280;6524;51.368;11.984;2022-10-14T18:36:49;99845.38;;;17.69;75.27
12913;BME280;6524;51.368;11.984;2022-10-14T18:41:50;99837.38;;;17.71;75.21
12913;BME280;6524;51.368;11.984;2022-10-14T18:46:50;99833.38;;;17.65;75.47
12913;BME280;6524;51.368;11.984;2022-10-14T18:51:50;99828.53;;;17.59;76.32
12913;BME280;6524;51.368;11.984;2022-10-14T18:56:53;99820.41;;;17.62;76.16
12913;BME280;6524;51.368;11.984;2022-10-14T19:01:54;99805.22;;;17.66;75.97
12913;BME280;6524;51.368;11.984;2022-10-14T19:06:55;99812.06;;;17.68;76.16
12913;BME280;6524;51.368;11.984;2022-10-14T19:11:55;99810.56;;;17.64;76.83
12913;BME280;6524;51.368;11.984;2022-10-14T19:16:57;99797.53;;;17.63;76.76
12913;BME280;6524;51.368;11.984;2022-10-14T19:21:58;99792.69;;;17.56;77.27
12913;BME280;6524;51.368;11.984;2022-10-14T19:27:00;99800.72;;;17.55;77.53
12913;BME280;6524;51.368;11.984;2022-10-14T19:32:00;99801.00;;;17.63;77.50
12913;BME280;6524;51.368;11.984;2022-10-14T19:37:00;99779.81;;;17.65;77.61
12913;BME280;6524;51.368;11.984;2022-10-14T19:42:01;99780.00;;;17.74;77.63
12913;BME280;6524;51.368;11.984;2022-10-14T19:47:01;99768.81;;;17.71;78.40
12913;BME280;6524;51.368;11.984;2022-10-14T19:52:02;99752.78;;;17.61;79.78
12913;BME280;6524;51.368;11.984;2022-10-14T19:57:02;99745.63;;;17.63;80.06
12913;BME280;6524;51.368;11.984;2022-10-14T20:02:02;99729.41;;;17.56;80.56
12913;BME280;6524;51.368;11.984;2022-10-14T20:07:03;99729.31;;;17.58;80.81
12913;BME280;6524;51.368;11.984;2022-10-14T20:12:03;99731.66;;;17.50;81.25
12913;BME280;6524;51.368;11.984;2022-10-14T20:17:03;99734.38;;;17.48;81.46
12913;BME280;6524;51.368;11.984;2022-10-14T20:22:04;99721.44;;;17.45;81.54
12913;BME280;6524;51.368;11.984;2022-10-14T20:27:04;99723.78;;;17.37;81.97
12913;BME280;6524;51.368;11.984;2022-10-14T20:32:05;99735.25;;;17.49;81.63
12913;BME280;6524;51.368;11.984;2022-10-14T20:37:05;99727.03;;;17.41;82.60
12913;BME280;6524;51.368;11.984;2022-10-14T20:42:06;99727.25;;;17.38;82.89
12913;BME280;6524;51.368;11.984;2022-10-14T20:47:08;99721.25;;;17.35;83.48
12913;BME280;6524;51.368;11.984;2022-10-14T20:52:08;99720.13;;;17.14;86.18
12913;BME280;6524;51.368;11.984;2022-10-14T20:57:09;99710.97;;;17.07;88.26
12913;BME280;6524;51.368;11.984;2022-10-14T21:02:19;99719.75;;;16.95;89.56
12913;BME280;6524;51.368;11.984;2022-10-14T21:07:20;99715.63;;;16.91;90.41
12913;BME280;6524;51.368;11.984;2022-10-14T21:12:20;99703.31;;;16.78;90.92
12913;BME280;6524;51.368;11.984;2022-10-14T21:17:21;99691.50;;;16.71;91.96
12913;BME280;6524;51.368;11.984;2022-10-14T21:22:21;99686.78;;;16.76;92.00
12913;BME280;6524;51.368;11.984;2022-10-14T21:27:21;99683.94;;;16.79;91.90
12913;BME280;6524;51.368;11.984;2022-10-14T21:32:22;99684.25;;;16.75;92.27
12913;BME280;6524;51.368;11.984;2022-10-14T21:37:22;99680.78;;;16.74;92.11
12913;BME280;6524;51.368;11.984;2022-10-14T21:42:22;99676.44;;;16.73;93.14
12913;BME280;6524;51.368;11.984;2022-10-14T21:47:23;99671.16;;;16.73;93.34
12913;BME280;6524;51.368;11.984;2022-10-14T21:52:23;99661.72;;;16.58;93.88
12913;BME280;6524;51.368;11.984;2022-10-14T21:57:24;99658.66;;;16.64;93.86
12913;BME280;6524;51.368;11.984;2022-10-14T22:02:24;99653.16;;;16.67;94.16
12913;BME280;6524;51.368;11.984;2022-10-14T22:07:25;99651.00;;;16.61;94.56
12913;BME280;6524;51.368;11.984;2022-10-14T22:12:25;99652.75;;;16.60;94.91
12913;BME280;6524;51.368;11.984;2022-10-14T22:17:27;99647.69;;;16.70;95.01
12913;BME280;6524;51.368;11.984;2022-10-14T22:22:28;99645.25;;;16.67;95.26
12913;BME280;6524;51.368;11.984;2022-10-14T22:27:28;99636.66;;;16.65;95.62
12913;BME280;6524;51.368;11.984;2022-10-14T22:32:29;99632.56;;;16.61;95.58
12913;BME280;6524;51.368;11.984;2022-10-14T22:37:30;99625.91;;;16.68;95.68
12913;BME280;6524;51.368;11.984;2022-10-14T22:42:30;99621.63;;;16.80;95.42
12913;BME280;6524;51.368;11.984;2022-10-14T22:47:31;99625.28;;;16.64;96.44
12913;BME280;6524;51.368;11.984;2022-10-14T22:52:31;99624.66;;;16.61;96.32
12913;BME280;6524;51.368;11.984;2022-10-14T22:57:31;99618.72;;;16.70;95.98
12913;BME280;6524;51.368;11.984;2022-10-14T23:02:32;99611.16;;;16.65;96.87
12913;BME280;6524;51.368;11.984;2022-10-14T23:07:32;99608.41;;;16.67;96.87
12913;BME280;6524;51.368;11.984;2022-10-14T23:12:32;99608.13;;;16.59;97.53
12913;BME280;6524;51.368;11.984;2022-10-14T23:17:33;99610.63;;;16.73;96.39
12913;BME280;6524;51.368;11.984;2022-10-14T23:22:33;99609.69;;;16.74;96.47
12913;BME280;6524;51.368;11.984;2022-10-14T23:27:33;99605.78;;;16.67;96.63
12913;BME280;6524;51.368;11.984;2022-10-14T23:32:34;99605.69;;;16.69;96.68
12913;BME280;6524;51.368;11.984;2022-10-14T23:37:34;99601.91;;;16.60;97.47
12913;BME280;6524;51.368;11.984;2022-10-14T23:42:34;99605.50;;;16.46;97.88
12913;BME280;6524;51.368;11.984;2022-10-14T23:47:35;99598.56;;;16.58;97.63
12913;BME280;6524;51.368;11.984;2022-10-14T23:52:35;99592.03;;;16.51;97.98
12913;BME280;6524;51.368;11.984;2022-10-14T23:57:35;99592.34;;;16.59;97.81
